Time;durP1;ratioP1;P1;durP2;ratioP2;P2;SDS_P1;SDS_P2;PMS_P1;PMS_P2;Temp;Humidity;BMP_temperature;BMP_pressure;BME280_temperature;BME280_humidity;BME280_pressure;Samples;Min_cycle;Max_cycle;Signal;HPM_P1;HPM_P2
2022/01/10 00:02:10;;;;;;;8.93;4.28;;;;;;;14.82;49.84;100899.06;5031123;28;20033;-60
2022/01/10 00:04:35;;;;;;;9.23;4.22;;;;;;;14.82;49.83;100903.38;5028323;28;20392;-60
2022/01/10 00:07:01;;;;;;;11.02;4.40;;;;;;;14.81;49.88;100909.44;5031002;28;20029;-61
2022/01/10 00:09:26;;;;;;;8.40;4.10;;;;;;;14.80;49.75;100911.13;5033068;28;20384;-61
2022/01/10 00:11:52;;;;;;;7.70;3.90;;;;;;;14.80;49.73;100924.09;5030890;28;20026;-61
2022/01/10 00:14:17;;;;;;;8.10;4.28;;;;;;;14.80;49.97;100924.09;5027016;28;20041;-60
2022/01/10 00:16:42;;;;;;;7.65;4.45;;;;;;;14.80;49.73;100928.44;5030889;28;20037;-61
2022/01/10 00:19:08;;;;;;;8.63;4.13;;;;;;;14.79;49.92;100935.31;5031276;28;20379;-61
2022/01/10 00:21:33;;;;;;;6.75;3.85;;;;;;;14.79;50.00;100934.47;5025080;28;20135;-61
2022/01/10 00:23:59;;;;;;;9.13;4.22;;;;;;;14.77;50.01;100938.75;5022660;28;20034;-61
2022/01/10 00:26:24;;;;;;;7.88;4.13;;;;;;;14.77;49.97;100944.84;5024175;28;20096;-60
2022/01/10 00:28:50;;;;;;;8.02;4.13;;;;;;;14.77;49.84;100946.53;5026396;28;20041;-60
2022/01/10 00:31:15;;;;;;;7.07;4.03;;;;;;;14.75;49.90;100943.94;5025235;28;20105;-60
2022/01/10 00:33:40;;;;;;;8.48;4.30;;;;;;;14.75;50.06;100949.13;5021048;28;20040;-61
2022/01/10 00:36:06;;;;;;;9.95;4.80;;;;;;;14.74;49.82;100944.78;5023608;28;20033;-61
2022/01/10 00:38:32;;;;;;;8.88;3.92;;;;;;;14.74;49.81;100936.13;5021064;28;20041;-61
2022/01/10 00:40:57;;;;;;;9.55;4.43;;;;;;;14.74;49.70;100949.97;5033743;28;20045;-61
2022/01/10 00:43:39;;;;;;;9.32;4.22;;;;;;;14.74;49.95;100952.56;5033230;28;20116;-61
2022/01/10 00:46:05;;;;;;;8.23;4.47;;;;;;;14.73;50.03;100955.13;5033061;28;20065;-61
2022/01/10 00:48:31;;;;;;;8.05;4.18;;;;;;;14.72;49.88;100959.47;5033362;28;20041;-61
2022/01/10 00:50:57;;;;;;;9.35;4.50;;;;;;;14.72;49.83;100951.69;5032285;28;20056;-61
2022/01/10 00:53:23;;;;;;;8.65;4.50;;;;;;;14.71;50.00;100952.53;5033467;28;20456;-60
2022/01/10 00:55:49;;;;;;;8.57;4.83;;;;;;;14.71;49.88;100960.31;5032061;28;20041;-61
2022/01/10 00:58:14;;;;;;;9.75;4.53;;;;;;;14.70;49.90;100960.28;5033395;28;20041;-61
2022/01/10 01:00:40;;;;;;;8.25;4.38;;;;;;;14.69;49.92;100974.97;5033442;28;20041;-61
2022/01/10 01:03:05;;;;;;;8.45;4.38;;;;;;;14.68;49.92;100981.03;5032352;28;20041;-61
2022/01/10 01:05:33;;;;;;;7.85;4.05;;;;;;;14.68;49.99;100987.91;5032402;28;20498;-61
2022/01/10 01:08:02;;;;;;;9.90;4.47;;;;;;;14.68;49.83;100991.41;5033348;28;20574;-61
2022/01/10 01:13:08;;;;;;;7.80;4.53;;;;;;;14.67;49.75;100997.44;5033397;28;20041;-61
2022/01/10 01:15:45;;;;;;;11.10;5.25;;;;;;;14.66;49.82;100998.28;5033370;28;20037;-61
2022/01/10 01:18:17;;;;;;;10.32;4.53;;;;;;;14.66;49.79;101006.06;5033204;28;20030;-61
2022/01/10 01:23:59;;;;;;;9.60;5.00;;;;;;;14.66;49.86;101019.03;5033440;28;20040;-61
2022/01/10 01:26:14;;;;;;;9.98;4.68;;;;;;;14.65;49.79;101025.06;5033064;28;20133;-61
2022/01/10 01:28:39;;;;;;;10.15;5.05;;;;;;;14.65;49.57;101030.25;5032865;28;20381;-61
2022/01/10 01:31:05;;;;;;;9.15;4.70;;;;;;;14.65;49.71;101030.25;5033281;28;20060;-61
2022/01/10 01:33:30;;;;;;;8.32;4.65;;;;;;;14.65;49.71;101036.31;5032743;28;20501;-61
2022/01/10 01:35:55;;;;;;;8.55;4.95;;;;;;;14.65;49.75;101036.31;5033163;28;20038;-60
2022/01/10 01:38:21;;;;;;;9.82;4.63;;;;;;;14.64;49.82;101041.47;5033061;28;20033;-60
2022/01/10 01:40:57;;;;;;;11.70;5.57;;;;;;;14.63;49.61;101047.50;5032897;28;20458;-60
2022/01/10 01:43:22;;;;;;;10.93;5.63;;;;;;;14.63;49.78;101044.91;5031914;28;20091;-60
2022/01/10 01:45:49;;;;;;;10.07;5.20;;;;;;;14.63;49.79;101052.69;5032688;28;20050;-60
2022/01/10 01:48:14;;;;;;;10.88;5.05;;;;;;;14.64;49.72;101059.63;5033299;28;20068;-60
2022/01/10 01:50:41;;;;;;;9.05;4.90;;;;;;;14.61;49.70;101068.19;5036960;28;20127;-61
2022/01/10 01:53:07;;;;;;;9.77;4.55;;;;;;;14.61;49.61;101068.19;5036605;28;20446;-60
2022/01/10 01:55:33;;;;;;;8.50;5.15;;;;;;;14.62;49.61;101077.72;5036849;28;20037;-60
2022/01/10 01:57:58;;;;;;;9.10;4.88;;;;;;;14.61;49.72;101077.72;5036666;28;20041;-60
2022/01/10 02:00:25;;;;;;;8.30;4.80;;;;;;;14.61;49.56;101085.50;5036677;28;20038;-60
2022/01/10 02:02:51;;;;;;;10.23;4.95;;;;;;;14.61;49.30;101088.94;5036348;28;20033;-60
2022/01/10 02:05:17;;;;;;;9.32;5.25;;;;;;;14.60;49.52;101083.75;5036766;28;20041;-60
2022/01/10 02:07:42;;;;;;;8.45;4.78;;;;;;;14.60;49.56;101074.25;5036512;28;20369;-60
2022/01/10 02:10:08;;;;;;;8.35;4.63;;;;;;;14.61;49.55;101090.69;5036457;28;20487;-60
2022/01/10 02:12:33;;;;;;;11.10;5.28;;;;;;;14.59;49.59;101094.97;5036357;28;20076;-60
2022/01/10 02:14:59;;;;;;;9.65;5.15;;;;;;;14.59;49.34;101088.06;5018540;28;20120;-60
2022/01/10 02:17:33;;;;;;;8.32;4.75;;;;;;;14.59;49.39;101088.06;5036064;28;20131;-60
2022/01/10 02:20:01;;;;;;;12.05;5.50;;;;;;;14.58;49.41;101095.81;5031160;28;20472;-60
2022/01/10 02:22:27;;;;;;;10.27;5.30;;;;;;;14.58;49.52;101085.44;5036207;28;20046;-60
2022/01/10 02:24:52;;;;;;;11.70;5.22;;;;;;;14.57;49.56;101086.28;5036511;28;20029;-60
2022/01/10 02:27:22;;;;;;;8.55;5.00;;;;;;;14.58;49.61;101106.19;5036389;28;20033;-60
2022/01/10 02:29:47;;;;;;;8.32;5.20;;;;;;;14.57;49.33;101104.44;5036242;28;20072;-60
2022/01/10 02:32:12;;;;;;;10.73;5.60;;;;;;;14.56;49.53;101106.16;5036229;28;20041;-60
2022/01/10 02:34:38;;;;;;;11.52;5.07;;;;;;;14.57;49.51;101120.00;5036194;28;20041;-60
2022/01/10 02:37:03;;;;;;;8.95;5.10;;;;;;;14.57;49.40;101125.19;5035884;28;20060;-60
2022/01/10 02:39:29;;;;;;;8.52;5.03;;;;;;;14.56;49.31;101126.03;5035859;28;20044;-60
2022/01/10 02:41:54;;;;;;;8.50;5.00;;;;;;;14.56;49.19;101136.41;5036024;28;20149;-60
2022/01/10 02:44:19;;;;;;;8.50;4.95;;;;;;;14.55;49.32;101140.75;5035745;28;20494;-60
2022/01/10 02:46:46;;;;;;;8.95;5.10;;;;;;;14.54;49.27;101146.78;5035338;28;20061;-60
2022/01/10 02:49:23;;;;;;;8.43;4.47;;;;;;;14.55;49.35;101147.63;5035856;28;20064;-60
2022/01/10 02:51:49;;;;;;;10.52;5.60;;;;;;;14.55;49.30;101158.00;5035970;28;20037;-60
2022/01/10 02:54:14;;;;;;;10.55;5.15;;;;;;;14.54;49.26;101157.16;5035605;28;20044;-60
2022/01/10 02:57:06;;;;;;;8.52;4.90;;;;;;;14.53;49.67;101163.16;5035266;28;20041;-60
2022/01/10 02:59:32;;;;;;;9.98;5.40;;;;;;;14.53;49.23;101170.94;5033332;28;20141;-60
2022/01/10 03:01:57;;;;;;;9.10;5.07;;;;;;;14.54;49.32;101182.19;5035782;28;20034;-60
2022/01/10 03:04:22;;;;;;;9.43;5.00;;;;;;;14.53;49.18;101178.72;5035502;28;20034;-60
2022/01/10 03:06:48;;;;;;;9.65;5.20;;;;;;;14.53;49.23;101183.06;5035650;28;20044;-60
2022/01/10 03:09:14;;;;;;;9.05;5.07;;;;;;;14.53;49.29;101186.50;5035298;28;20431;-60
2022/01/10 03:11:41;;;;;;;9.80;5.05;;;;;;;14.52;49.17;101189.09;5035066;28;20472;-60
2022/01/10 03:14:07;;;;;;;12.15;5.53;;;;;;;14.52;49.08;101199.47;5035520;28;20030;-60
2022/01/10 03:16:33;;;;;;;8.85;5.00;;;;;;;14.52;48.96;101196.88;5035285;28;20041;-60
2022/01/10 03:18:58;;;;;;;10.05;5.80;;;;;;;14.51;49.32;101197.69;5035588;28;20033;-59
2022/01/10 03:21:24;;;;;;;11.48;5.70;;;;;;;14.49;49.10;101203.72;5035105;28;20499;-60
2022/01/10 03:23:51;;;;;;;14.15;5.60;;;;;;;14.50;49.29;101207.22;5035139;28;20040;-60
2022/01/10 03:26:18;;;;;;;8.30;4.85;;;;;;;14.48;49.10;101208.88;5034853;28;20499;-60
2022/01/10 03:28:44;;;;;;;9.68;5.22;;;;;;;14.48;49.09;101214.94;5035200;28;20037;-60
2022/01/10 03:31:09;;;;;;;9.38;5.43;;;;;;;14.48;49.00;101216.66;5034918;28;20076;-60
2022/01/10 03:33:35;;;;;;;9.00;5.13;;;;;;;14.48;49.08;101214.06;5035120;28;20495;-60
2022/01/10 03:36:00;;;;;;;9.52;5.07;;;;;;;14.47;49.10;101218.41;5034781;28;20040;-60
2022/01/10 03:38:26;;;;;;;9.10;5.40;;;;;;;14.46;49.11;101221.84;5034991;28;20079;-60
2022/01/10 03:40:51;;;;;;;10.88;5.30;;;;;;;14.46;49.14;101231.31;5034654;28;20040;-60
2022/01/10 03:43:16;;;;;;;9.30;5.30;;;;;;;14.46;49.03;101242.59;5034828;28;20033;-60
2022/01/10 03:45:43;;;;;;;10.07;4.93;;;;;;;14.45;49.23;101243.41;5034828;28;20058;-60
2022/01/10 03:48:09;;;;;;;8.50;5.10;;;;;;;14.45;49.13;101253.78;5034795;28;20172;-60
2022/01/10 03:50:34;;;;;;;9.00;4.82;;;;;;;14.45;49.15;101251.19;5034605;28;20108;-60
2022/01/10 03:53:00;;;;;;;8.80;5.20;;;;;;;14.44;49.22;101249.44;5034713;28;20391;-60
2022/01/10 03:55:25;;;;;;;11.48;5.50;;;;;;;14.45;49.19;101266.75;5034704;28;20037;-60
2022/01/10 03:57:51;;;;;;;9.20;5.10;;;;;;;14.45;49.11;101258.13;5033288;28;20033;-60
2022/01/10 04:00:16;;;;;;;8.23;5.05;;;;;;;14.44;48.96;101265.00;5034554;28;20116;-60
2022/01/10 04:02:47;;;;;;;8.68;4.75;;;;;;;14.44;49.21;101270.19;5034406;28;20392;-60
2022/01/10 04:05:12;;;;;;;10.27;5.00;;;;;;;14.43;48.96;101278.81;5034318;28;20030;-60
2022/01/10 04:07:38;;;;;;;9.07;5.40;;;;;;;14.43;48.96;101276.22;5034250;28;20042;-60
2022/01/10 04:10:04;;;;;;;9.82;5.03;;;;;;;14.42;49.00;101274.50;5033673;28;20037;-60
2022/01/10 04:12:30;;;;;;;12.75;5.55;;;;;;;14.41;49.02;101275.31;5034092;28;20100;-60
2022/01/10 04:14:56;;;;;;;8.70;5.35;;;;;;;14.41;49.14;101285.69;5034230;28;20037;-60
2022/01/10 04:17:21;;;;;;;10.27;5.43;;;;;;;14.41;48.67;101296.06;5034294;28;20041;-60
2022/01/10 04:19:46;;;;;;;9.27;5.03;;;;;;;14.41;49.00;101290.88;5033029;28;20041;-60
2022/01/10 04:22:12;;;;;;;11.27;5.90;;;;;;;14.41;49.07;101302.97;5034026;28;20121;-60
2022/01/10 04:24:38;;;;;;;8.73;5.40;;;;;;;14.40;48.96;101294.31;5032801;28;20048;-60
2022/01/10 04:27:03;;;;;;;10.90;5.63;;;;;;;14.40;49.20;101311.59;5033959;28;20075;-60
2022/01/10 04:29:29;;;;;;;9.32;4.93;;;;;;;14.40;48.96;101307.28;5034106;28;20057;-61
2022/01/10 04:31:54;;;;;;;11.35;5.05;;;;;;;14.39;49.02;101318.50;5034082;28;20042;-60
2022/01/10 04:34:20;;;;;;;9.90;5.38;;;;;;;14.37;48.90;101320.19;5033829;28;20048;-60
2022/01/10 04:36:46;;;;;;;10.50;5.68;;;;;;;14.40;49.11;101321.97;5033810;28;20052;-61
2022/01/10 04:39:11;;;;;;;10.82;5.20;;;;;;;14.38;49.05;101321.06;5033686;28;20068;-61
2022/01/10 04:41:37;;;;;;;12.30;5.30;;;;;;;14.38;49.05;101332.28;5032284;28;20029;-60
2022/01/10 04:44:03;;;;;;;9.13;5.43;;;;;;;14.39;48.93;101339.25;5033793;28;20041;-60
2022/01/10 04:46:29;;;;;;;11.30;5.15;;;;;;;14.39;49.10;101346.16;5033661;28;20050;-61
2022/01/10 04:48:54;;;;;;;10.90;5.18;;;;;;;14.39;48.73;101352.19;5033464;28;20037;-61
2022/01/10 04:51:20;;;;;;;9.52;5.60;;;;;;;14.40;48.90;101356.56;5033734;28;20030;-61
2022/01/10 04:53:48;;;;;;;10.15;5.45;;;;;;;14.39;48.95;101359.97;5032387;28;20048;-60
2022/01/10 04:56:16;;;;;;;11.10;5.15;;;;;;;14.39;48.75;101380.72;5033314;28;20104;-60
2022/01/10 04:58:42;;;;;;;10.77;5.50;;;;;;;14.41;48.74;101385.94;5033558;28;20111;-60
2022/01/10 05:01:08;;;;;;;10.45;4.97;;;;;;;14.39;48.89;101385.91;5033203;28;20417;-60
2022/01/10 05:03:34;;;;;;;10.45;5.82;;;;;;;14.39;48.70;101392.81;5033605;28;20482;-60
2022/01/10 05:06:00;;;;;;;9.02;5.05;;;;;;;14.38;48.92;101388.47;5033334;28;20030;-61
2022/01/10 05:08:25;;;;;;;9.73;5.20;;;;;;;14.38;48.52;101394.53;5033217;28;20037;-61
2022/01/10 05:10:51;;;;;;;9.65;5.63;;;;;;;14.38;48.92;101409.22;5032915;28;20030;-61
2022/01/10 05:13:16;;;;;;;10.48;5.47;;;;;;;14.39;48.69;101411.84;5033768;28;20522;-61
2022/01/10 05:15:42;;;;;;;9.02;5.22;;;;;;;14.37;48.82;101413.53;5033262;28;20526;-60
2022/01/10 05:18:09;;;;;;;9.93;5.15;;;;;;;14.37;48.57;101413.53;5033171;28;20037;-61
2022/01/10 05:20:36;;;;;;;10.55;5.30;;;;;;;14.37;48.70;101426.50;5033318;28;20048;-61
2022/01/10 05:23:01;;;;;;;9.57;5.75;;;;;;;14.37;48.77;101423.03;5033071;28;20038;-61
2022/01/10 05:25:27;;;;;;;9.13;5.28;;;;;;;14.37;48.75;101436.00;5033157;28;20092;-61
2022/01/10 05:27:52;;;;;;;10.55;5.32;;;;;;;14.37;48.59;101444.66;5031797;28;20048;-61
2022/01/10 05:30:18;;;;;;;10.27;5.13;;;;;;;14.36;48.55;101431.63;5032750;28;20522;-61
2022/01/10 05:32:43;;;;;;;12.20;5.57;;;;;;;14.37;48.72;101434.28;5017313;28;20038;-61
2022/01/10 05:35:09;;;;;;;9.77;5.15;;;;;;;14.36;48.58;101442.00;5033195;28;20069;-61
2022/01/10 05:37:34;;;;;;;8.45;5.32;;;;;;;14.35;48.43;101443.75;5033074;28;20028;-61
2022/01/10 05:40:00;;;;;;;10.30;4.90;;;;;;;14.36;48.55;101457.56;5033126;28;20030;-61
2022/01/10 05:42:25;;;;;;;11.15;5.25;;;;;;;14.35;48.65;101467.06;5032565;28;20037;-61
2022/01/10 05:44:50;;;;;;;10.57;5.38;;;;;;;14.35;48.48;101468.81;5032645;28;20033;-60
2022/01/10 05:47:16;;;;;;;10.05;5.38;;;;;;;14.34;48.71;101462.72;5033089;28;20156;-61
2022/01/10 05:49:47;;;;;;;8.23;5.00;;;;;;;14.33;48.65;101474.81;5031933;28;20041;-61
2022/01/10 05:52:13;;;;;;;8.07;5.10;;;;;;;14.34;48.73;101475.69;5023651;28;20392;-61
2022/01/10 05:54:38;;;;;;;11.13;5.78;;;;;;;14.32;48.20;101477.38;5032183;28;20033;-61
2022/01/10 05:57:05;;;;;;;9.82;5.00;;;;;;;14.33;48.43;101486.91;5033177;28;20382;-61
2022/01/10 05:59:31;;;;;;;10.48;5.10;;;;;;;14.32;48.45;101485.16;5022173;28;20034;-61
2022/01/10 06:01:57;;;;;;;11.50;5.25;;;;;;;14.33;48.58;101479.13;5022758;28;20057;-61
2022/01/10 06:04:23;;;;;;;9.80;5.28;;;;;;;14.32;48.45;101478.25;5021680;28;20387;-61
2022/01/10 06:06:48;;;;;;;8.80;4.68;;;;;;;14.33;48.60;101494.66;5018444;28;20052;-61
2022/01/10 06:09:14;;;;;;;10.52;5.50;;;;;;;14.31;48.58;101494.63;5032708;28;20038;-61
2022/01/10 06:11:42;;;;;;;9.02;4.68;;;;;;;14.32;48.51;101501.59;5026764;28;20037;-61
2022/01/10 06:14:08;;;;;;;8.70;4.90;;;;;;;14.30;48.48;101508.44;5026536;28;20037;-61
2022/01/10 06:16:34;;;;;;;9.88;4.88;;;;;;;14.32;48.34;101503.31;5032430;28;20383;-61
2022/01/10 06:18:59;;;;;;;9.43;5.05;;;;;;;14.30;48.59;101504.97;5032775;28;20038;-60
2022/01/10 06:21:25;;;;;;;12.30;5.70;;;;;;;14.30;48.45;101521.41;5032754;28;20105;-61
2022/01/10 06:23:50;;;;;;;11.15;5.53;;;;;;;14.30;48.28;101521.41;5025642;28;20123;-60
2022/01/10 06:26:16;;;;;;;8.95;4.80;;;;;;;14.30;48.44;101530.91;5021026;28;20499;-61
2022/01/10 06:28:41;;;;;;;10.95;4.97;;;;;;;14.32;48.70;101535.28;5019926;28;20041;-62
2022/01/10 06:31:06;;;;;;;10.00;4.90;;;;;;;14.35;48.51;101542.28;5024855;28;20033;-61
2022/01/10 06:33:32;;;;;;;10.55;5.05;;;;;;;14.39;48.29;101549.28;5026610;28;20421;-61
2022/01/10 06:35:57;;;;;;;9.80;4.93;;;;;;;14.42;48.38;101551.97;5033035;28;20033;-60
2022/01/10 06:38:23;;;;;;;10.43;5.05;;;;;;;14.46;48.18;101564.19;5033376;28;20045;-62
2022/01/10 06:40:48;;;;;;;10.57;4.90;;;;;;;14.48;48.18;101574.59;5030225;28;20037;-61
2022/01/10 06:43:14;;;;;;;9.70;4.88;;;;;;;14.51;48.33;101572.06;5032648;28;20484;-61
2022/01/10 06:45:39;;;;;;;9.95;5.13;;;;;;;14.53;48.03;101575.56;5024818;28;20045;-60
2022/01/10 06:48:05;;;;;;;10.48;5.00;;;;;;;14.56;48.09;101574.78;5026894;28;20411;-60
2022/01/10 06:50:30;;;;;;;12.82;5.88;;;;;;;14.58;47.92;101565.31;5033481;28;20056;-61
2022/01/10 06:52:57;;;;;;;9.93;5.32;;;;;;;14.60;47.93;101584.38;5034955;28;20044;-61
2022/01/10 06:55:22;;;;;;;8.90;5.25;;;;;;;14.62;47.93;101580.13;5033170;28;20128;-61
2022/01/10 06:57:48;;;;;;;11.18;5.60;;;;;;;14.62;47.79;101591.38;5025675;28;20117;-61
2022/01/10 07:00:14;;;;;;;8.82;4.80;;;;;;;14.64;47.56;101594.03;5030383;28;20103;-61
2022/01/10 07:02:39;;;;;;;11.00;5.40;;;;;;;14.64;47.79;101602.69;5031570;28;20029;-61
2022/01/10 07:05:05;;;;;;;9.52;5.15;;;;;;;14.65;47.77;101607.06;5035603;28;20038;-61
2022/01/10 07:07:30;;;;;;;9.27;4.75;;;;;;;14.67;47.57;101616.56;5035377;28;20061;-61
2022/01/10 07:09:56;;;;;;;10.85;5.57;;;;;;;14.67;47.58;101627.84;5033985;28;20045;-61
2022/01/10 07:12:21;;;;;;;11.23;5.22;;;;;;;14.67;47.60;101632.13;5033718;28;20128;-61
2022/01/10 07:14:46;;;;;;;10.73;6.30;;;;;;;14.68;47.60;101633.91;5034295;28;20040;-61
2022/01/10 07:17:12;;;;;;;12.43;6.35;;;;;;;14.68;47.51;101631.31;5034774;28;20442;-62
2022/01/10 07:19:37;;;;;;;15.85;6.15;;;;;;;14.68;47.51;101637.38;5034827;28;20041;-61
2022/01/10 07:22:04;;;;;;;12.60;6.05;;;;;;;14.68;47.56;101645.19;5035358;28;20041;-62
2022/01/10 07:24:29;;;;;;;11.52;6.22;;;;;;;14.69;47.45;101648.63;5034274;28;20041;-61
2022/01/10 07:26:55;;;;;;;12.98;6.78;;;;;;;14.69;47.46;101665.06;5034662;28;20044;-62
2022/01/10 07:29:20;;;;;;;10.77;5.90;;;;;;;14.68;47.55;101668.53;5033706;28;20099;-62
2022/01/10 07:31:46;;;;;;;13.23;6.90;;;;;;;14.69;47.33;101667.66;5034297;28;20037;-62
2022/01/10 07:34:14;;;;;;;10.35;5.80;;;;;;;14.69;47.37;101675.44;5030763;28;20105;-62
2022/01/10 07:36:40;;;;;;;12.07;5.95;;;;;;;14.68;47.30;101681.50;5024410;28;20030;-62
2022/01/10 07:39:05;;;;;;;12.10;7.05;;;;;;;14.69;47.27;101680.63;5025998;28;20361;-62
2022/01/10 07:41:31;;;;;;;11.82;5.95;;;;;;;14.69;47.37;101678.03;5034260;28;20400;-62
2022/01/10 07:43:58;;;;;;;10.52;5.70;;;;;;;14.70;47.36;101687.59;5033244;28;20037;-61
2022/01/10 07:46:23;;;;;;;10.68;6.35;;;;;;;14.70;47.30;101699.69;5032428;28;20053;-62
2022/01/10 07:48:49;;;;;;;12.10;6.55;;;;;;;14.70;47.55;101702.28;5033274;28;20052;-62
2022/01/10 07:51:14;;;;;;;12.40;6.20;;;;;;;14.70;47.33;101708.34;5034688;28;20040;-62
2022/01/10 07:53:40;;;;;;;12.95;5.97;;;;;;;14.71;47.34;101717.03;5034596;28;20039;-62
2022/01/10 07:56:06;;;;;;;11.50;6.28;;;;;;;14.70;47.38;101723.91;5034131;28;20055;-62
2022/01/10 07:58:32;;;;;;;11.75;6.13;;;;;;;14.70;47.25;101726.50;5034370;28;20065;-62
2022/01/10 08:00:58;;;;;;;13.07;5.97;;;;;;;14.70;47.25;101736.88;5033518;28;20045;-62
2022/01/10 08:03:24;;;;;;;11.05;5.82;;;;;;;14.70;47.27;101734.28;5034634;28;20040;-62
2022/01/10 08:05:49;;;;;;;10.35;6.00;;;;;;;14.68;47.21;101741.19;5034193;28;20072;-62
2022/01/10 08:08:15;;;;;;;10.68;5.57;;;;;;;14.69;47.31;101742.91;5033323;28;20037;-62
2022/01/10 08:10:40;;;;;;;12.00;6.18;;;;;;;14.69;47.23;101747.22;5033967;28;20033;-62
2022/01/10 08:13:05;;;;;;;9.13;5.82;;;;;;;14.67;47.30;101744.59;5034171;28;20033;-62
2022/01/10 08:15:31;;;;;;;11.20;6.32;;;;;;;14.67;47.30;101754.06;5034109;28;20037;-62
2022/01/10 08:17:57;;;;;;;11.60;5.53;;;;;;;14.67;47.40;101762.75;5030192;28;20507;-62
2022/01/10 08:20:23;;;;;;;9.48;5.70;;;;;;;14.65;47.17;101765.31;5032032;28;20038;-62
2022/01/10 08:22:48;;;;;;;8.82;5.32;;;;;;;14.65;47.21;101778.28;5034372;28;20033;-62
2022/01/10 08:25:14;;;;;;;11.75;5.85;;;;;;;14.65;47.23;101777.41;5033684;28;20037;-62
2022/01/10 08:27:40;;;;;;;11.13;5.65;;;;;;;14.63;47.40;101777.31;5034306;28;20056;-62
2022/01/10 08:30:07;;;;;;;10.02;5.88;;;;;;;14.61;47.32;101780.72;5026067;28;20041;-63
2022/01/10 08:32:33;;;;;;;10.52;5.70;;;;;;;14.61;47.37;101793.69;5031056;28;20434;-62
2022/01/10 08:34:58;;;;;;;10.55;5.70;;;;;;;14.60;47.25;101804.91;5030988;28;20045;-62
2022/01/10 08:37:24;;;;;;;12.75;5.43;;;;;;;14.59;47.47;101805.72;5043037;28;20146;-62
2022/01/10 08:39:51;;;;;;;11.45;6.10;;;;;;;14.58;47.72;101811.78;5022607;28;20547;-62
2022/01/10 08:42:23;;;;;;;11.30;5.32;;;;;;;14.57;47.23;101826.44;5021890;28;20045;-61
2022/01/10 08:44:50;;;;;;;11.20;5.55;;;;;;;14.58;47.33;101837.72;5021495;28;20523;-62
2022/01/10 08:47:16;;;;;;;10.63;6.00;;;;;;;14.58;47.14;101842.91;5022690;28;20120;-61
2022/01/10 08:49:42;;;;;;;11.50;6.28;;;;;;;14.57;47.12;101842.00;5030145;28;20439;-61
2022/01/10 08:52:07;;;;;;;11.55;5.63;;;;;;;14.56;47.19;101854.94;5022672;28;20377;-61
2022/01/10 08:54:33;;;;;;;11.07;5.57;;;;;;;14.56;47.26;101860.13;5023192;28;20129;-62
2022/01/10 08:57:00;;;;;;;11.20;5.85;;;;;;;14.55;47.38;101863.53;5024148;28;20040;-61
2022/01/10 08:59:28;;;;;;;10.85;5.40;;;;;;;14.53;47.28;101866.09;5019697;28;20435;-61
2022/01/10 09:01:57;;;;;;;10.50;5.80;;;;;;;14.52;47.41;101874.72;5029666;28;20068;-62
2022/01/10 09:04:23;;;;;;;10.15;5.32;;;;;;;14.51;47.40;101878.13;5018932;28;20034;-61
2022/01/10 09:06:51;;;;;;;10.27;5.68;;;;;;;14.51;47.33;101872.06;5028145;28;20044;-62
2022/01/10 09:09:17;;;;;;;11.02;5.75;;;;;;;14.51;47.33;101877.25;5018956;28;20039;-61
2022/01/10 09:11:43;;;;;;;8.70;5.45;;;;;;;14.51;47.36;101875.53;5025186;28;20046;-61
2022/01/10 09:14:09;;;;;;;9.73;5.75;;;;;;;14.53;47.26;101879.06;5025847;28;20372;-61
2022/01/10 09:16:35;;;;;;;9.77;5.53;;;;;;;14.54;47.41;101890.31;5030657;28;20430;-62
2022/01/10 09:19:00;;;;;;;9.50;5.25;;;;;;;14.54;47.39;101899.00;5031503;28;20476;-61
2022/01/10 09:21:26;;;;;;;11.23;5.60;;;;;;;14.53;47.46;101894.63;5032569;28;20463;-61
2022/01/10 09:23:52;;;;;;;10.35;5.30;;;;;;;14.52;47.44;101900.66;5032439;28;20453;-61
2022/01/10 09:26:17;;;;;;;9.55;4.90;;;;;;;14.52;47.57;101899.78;5032660;28;20073;-61
2022/01/10 09:28:43;;;;;;;10.43;5.35;;;;;;;14.50;47.65;101899.75;5031890;28;20029;-61
2022/01/10 09:31:10;;;;;;;10.10;5.05;;;;;;;14.50;47.57;101907.53;5032773;28;20132;-61
2022/01/10 09:33:35;;;;;;;11.65;5.40;;;;;;;14.48;47.57;101907.44;5031954;28;20080;-61
2022/01/10 09:36:01;;;;;;;9.30;4.80;;;;;;;14.48;47.61;101904.00;5032953;28;20463;-61
2022/01/10 09:38:27;;;;;;;8.85;4.93;;;;;;;14.46;47.56;101903.94;5033237;28;20121;-61
2022/01/10 09:40:52;;;;;;;9.15;5.30;;;;;;;14.45;47.88;101909.97;5033056;28;20034;-61
2022/01/10 09:43:18;;;;;;;10.13;5.80;;;;;;;14.45;47.62;101920.34;5031482;28;20037;-61
2022/01/10 09:45:45;;;;;;;11.80;5.40;;;;;;;14.45;47.91;101915.16;5032807;28;20057;-61
2022/01/10 09:48:10;;;;;;;9.93;4.95;;;;;;;14.45;47.84;101915.16;5033055;28;20038;-61
2022/01/10 09:50:35;;;;;;;8.50;4.95;;;;;;;14.45;47.92;101914.28;5032820;28;20457;-61
2022/01/10 09:53:02;;;;;;;9.27;4.95;;;;;;;14.45;47.83;101915.16;5032983;28;20046;-61
2022/01/10 09:55:31;;;;;;;10.75;5.22;;;;;;;14.45;47.85;101930.72;5032798;28;20045;-61
2022/01/10 09:57:57;;;;;;;9.00;4.43;;;;;;;14.45;47.99;101935.03;5033005;28;20044;-61
2022/01/10 10:00:22;;;;;;;8.27;4.57;;;;;;;14.44;47.89;101941.06;5033125;28;20037;-61
2022/01/10 10:02:48;;;;;;;9.05;4.90;;;;;;;14.44;47.80;101946.25;5033156;28;20037;-62
2022/01/10 10:05:14;;;;;;;8.82;4.47;;;;;;;14.44;48.10;101959.22;5033289;28;20037;-62
2022/01/10 10:07:41;;;;;;;9.52;5.07;;;;;;;14.42;47.92;101956.56;5032478;28;20049;-61
2022/01/10 10:10:11;;;;;;;9.77;5.20;;;;;;;14.42;47.99;101964.34;5036281;28;20040;-62
2022/01/10 10:12:42;;;;;;;9.32;5.18;;;;;;;14.42;48.03;101964.34;5029840;28;20035;-62
2022/01/10 10:15:12;;;;;;;9.32;4.72;;;;;;;14.41;48.02;101975.56;5026476;28;20037;-61
2022/01/10 10:17:39;;;;;;;9.63;4.57;;;;;;;14.40;48.19;101976.38;5027128;28;20045;-62
2022/01/10 10:20:10;;;;;;;10.07;5.10;;;;;;;14.40;48.04;101996.25;5026221;28;20125;-62
2022/01/10 10:22:40;;;;;;;8.60;4.90;;;;;;;14.40;48.05;101996.25;5024587;28;20030;-62
2022/01/10 10:25:07;;;;;;;8.77;4.63;;;;;;;14.41;48.14;102005.78;5020136;28;20554;-61
2022/01/10 10:27:45;;;;;;;9.88;4.95;;;;;;;14.40;48.33;102004.91;5035079;28;20045;-61
2022/01/10 10:30:14;;;;;;;10.20;5.35;;;;;;;14.39;48.01;102004.88;5035215;28;20052;-61
2022/01/10 10:32:40;;;;;;;8.50;5.18;;;;;;;14.39;48.10;102013.50;5036025;28;20029;-61
2022/01/10 10:35:07;;;;;;;10.63;5.60;;;;;;;14.41;48.19;102010.97;5035863;28;20033;-61
2022/01/10 10:37:38;;;;;;;11.48;5.20;;;;;;;14.44;48.30;102021.47;5032110;28;20124;-61
2022/01/10 10:40:09;;;;;;;8.38;5.00;;;;;;;14.47;48.09;102019.84;5034897;28;20060;-61
2022/01/10 10:42:38;;;;;;;9.60;5.13;;;;;;;14.51;48.09;102027.72;5036213;28;20444;-61
2022/01/10 10:45:11;;;;;;;8.20;4.93;;;;;;;14.52;48.16;102027.75;5035821;28;20033;-61
2022/01/10 10:47:40;;;;;;;9.30;5.00;;;;;;;14.55;47.93;102026.97;5036045;28;20050;-61
2022/01/10 10:50:07;;;;;;;10.13;4.93;;;;;;;14.56;47.99;102031.34;5035748;28;20505;-61
2022/01/10 10:52:34;;;;;;;9.43;5.22;;;;;;;14.59;48.01;102028.84;5035947;28;20038;-61
2022/01/10 10:55:17;;;;;;;9.20;4.72;;;;;;;14.61;48.24;102032.38;5035887;28;20041;-61
2022/01/10 10:57:43;;;;;;;9.68;5.00;;;;;;;14.62;47.89;102031.53;5035690;28;20037;-62
2022/01/10 11:00:15;;;;;;;8.65;4.50;;;;;;;14.64;48.06;102029.91;5035657;28;20048;-61
2022/01/10 11:02:43;;;;;;;9.02;4.85;;;;;;;14.64;47.91;102035.09;5035711;28;20033;-61
2022/01/10 11:05:09;;;;;;;9.95;5.03;;;;;;;14.64;47.94;102050.66;5035729;28;20049;-62
2022/01/10 11:07:35;;;;;;;9.35;5.07;;;;;;;14.65;47.92;102052.41;5035649;28;20037;-61
2022/01/10 11:10:04;;;;;;;9.18;5.05;;;;;;;14.64;47.82;102053.25;5035549;28;20050;-61
2022/01/10 11:12:33;;;;;;;9.07;5.18;;;;;;;14.64;47.91;102061.03;5034089;28;20151;-61
2022/01/10 11:14:59;;;;;;;8.15;4.63;;;;;;;14.66;47.90;102064.56;5035336;28;20095;-62
2022/01/10 11:17:26;;;;;;;8.98;4.70;;;;;;;14.66;47.72;102059.38;5035412;28;20038;-62
2022/01/10 11:20:08;;;;;;;8.43;4.90;;;;;;;14.67;48.24;102060.25;5035111;28;20037;-61
2022/01/10 11:22:35;;;;;;;9.77;5.07;;;;;;;14.67;47.86;102070.63;5034710;28;20120;-61
2022/01/10 11:25:02;;;;;;;8.70;4.22;;;;;;;14.67;47.94;102068.94;5029319;28;20475;-61